createdAt,value
2018-05-14T02:03:05.762Z,0.00
2018-05-14T02:04:05.723Z,0.00
2018-05-14T02:05:58.692Z,0.00
2018-05-14T02:06:58.751Z,0.00
2018-05-14T02:08:51.634Z,0.00
2018-05-14T02:09:51.608Z,0.00
2018-05-14T02:11:44.570Z,0.00
2018-05-14T02:12:44.546Z,0.00
2018-05-14T02:14:37.459Z,0.00
2018-05-14T02:15:38.903Z,0.00
2018-05-14T02:17:30.396Z,0.00
2018-05-14T02:18:30.381Z,0.00
2018-05-14T02:20:23.383Z,0.00
2018-05-14T02:21:23.330Z,0.00
2018-05-14T02:23:16.316Z,0.00
2018-05-14T02:24:16.297Z,0.00
2018-05-14T02:26:09.243Z,0.00
2018-05-14T02:27:09.221Z,0.00
2018-05-14T02:29:02.212Z,0.00
2018-05-14T02:30:02.201Z,0.00
2018-05-14T02:31:55.188Z,0.00
2018-05-14T02:32:55.152Z,0.00
2018-05-14T02:34:48.121Z,0.00
2018-05-14T02:35:48.106Z,0.00
2018-05-14T02:37:41.028Z,0.00
2018-05-14T02:38:40.991Z,0.00
2018-05-14T02:40:33.922Z,0.00
2018-05-14T02:41:33.904Z,0.00
2018-05-14T02:43:26.901Z,0.00
2018-05-14T02:44:26.865Z,0.00
2018-05-14T02:46:19.842Z,0.00
2018-05-14T02:47:19.817Z,0.00
2018-05-14T02:49:12.747Z,0.00
2018-05-14T02:50:12.728Z,0.00
2018-05-14T02:52:05.659Z,0.00
2018-05-14T02:53:05.646Z,0.00
2018-05-14T02:54:58.512Z,0.00
2018-05-14T02:55:58.496Z,0.00
2018-05-14T02:57:51.458Z,0.00
2018-05-14T02:58:51.431Z,0.00
2018-05-14T03:00:44.402Z,0.00
2018-05-14T03:01:44.387Z,0.00
2018-05-14T03:03:37.363Z,0.00
2018-05-14T03:04:37.334Z,0.00
2018-05-14T03:06:30.320Z,0.00
2018-05-14T03:07:30.290Z,0.00
2018-05-14T03:09:23.200Z,0.00
2018-05-14T03:10:23.179Z,0.00
2018-05-14T03:12:16.121Z,0.00
2018-05-14T03:13:16.099Z,0.00
2018-05-14T03:15:09.111Z,0.00
2018-05-14T03:16:09.086Z,0.00
2018-05-14T03:18:02.043Z,0.00
2018-05-14T03:19:02.010Z,0.00
2018-05-14T03:20:54.978Z,0.00
2018-05-14T03:21:54.974Z,0.00
2018-05-14T03:23:47.908Z,0.00
2018-05-14T03:24:47.876Z,0.00
2018-05-14T03:26:40.784Z,0.00
2018-05-14T03:27:40.765Z,0.00
2018-05-14T03:29:33.742Z,0.00
2018-05-14T03:30:33.719Z,0.00
2018-05-14T03:32:26.712Z,0.00
2018-05-14T03:33:26.679Z,0.00
2018-05-14T03:35:19.662Z,0.00
2018-05-14T03:36:19.626Z,0.00
2018-05-14T03:38:12.616Z,0.00
2018-05-14T03:39:12.585Z,0.00
2018-05-14T03:41:05.556Z,0.00
2018-05-14T03:42:05.557Z,0.00
2018-05-14T03:43:58.698Z,0.00
2018-05-14T03:44:58.672Z,0.00
2018-05-14T03:46:51.663Z,0.00
2018-05-14T03:47:51.642Z,0.00
2018-05-14T03:49:44.628Z,0.00
2018-05-14T03:50:44.606Z,5.63
2018-05-14T03:52:37.585Z,5.63
2018-05-14T03:53:37.556Z,5.63
2018-05-14T03:55:30.522Z,5.63
2018-05-14T03:56:30.491Z,5.63
2018-05-14T03:58:23.448Z,11.25
2018-05-14T03:59:23.416Z,11.25
2018-05-14T04:01:16.334Z,11.25
2018-05-14T04:02:16.373Z,11.25
2018-05-14T04:04:09.293Z,11.25
2018-05-14T04:05:09.266Z,16.88
2018-05-14T04:07:02.165Z,22.50
2018-05-14T04:08:02.149Z,22.50
2018-05-14T04:09:55.103Z,28.13
2018-05-14T04:10:55.066Z,28.13
2018-05-14T04:12:48.046Z,39.38
2018-05-14T04:13:48.026Z,39.38
2018-05-14T04:15:40.951Z,50.63
2018-05-14T04:16:41.002Z,56.25
2018-05-14T04:18:33.848Z,84.38
2018-05-14T04:19:33.833Z,101.25
2018-05-14T04:21:26.755Z,95.63
2018-05-14T04:22:26.730Z,95.63
2018-05-14T04:24:19.677Z,101.25
2018-05-14T04:25:19.644Z,101.25
2018-05-14T04:27:12.619Z,95.63
2018-05-14T04:28:12.598Z,84.38
2018-05-14T04:30:05.553Z,78.75
2018-05-14T04:31:05.530Z,78.75
2018-05-14T04:32:58.447Z,84.38
2018-05-14T04:33:58.424Z,84.38
2018-05-14T04:35:51.386Z,78.75
2018-05-14T04:36:51.362Z,73.13
2018-05-14T04:38:44.324Z,67.50
2018-05-14T04:39:44.309Z,67.50
2018-05-14T04:42:28.385Z,67.50
2018-05-14T04:43:28.282Z,78.75
2018-05-14T04:45:21.231Z,84.38
2018-05-14T04:46:21.229Z,84.38
2018-05-14T04:48:14.196Z,84.38
2018-05-14T04:49:14.171Z,78.75
2018-05-14T04:51:07.104Z,84.38
2018-05-14T04:52:07.081Z,78.75
2018-05-14T04:53:07.084Z,78.75
2018-05-14T04:54:07.064Z,90.00
2018-05-14T04:55:07.074Z,106.88
2018-05-14T04:56:07.063Z,112.50
2018-05-14T04:57:07.066Z,112.50
2018-05-14T04:58:07.080Z,112.50
2018-05-14T04:59:07.062Z,112.50
2018-05-14T05:00:07.046Z,112.50
2018-05-14T05:01:07.054Z,118.13
2018-05-14T05:02:07.031Z,123.75
2018-05-14T05:03:07.025Z,118.13
2018-05-14T05:04:07.018Z,118.13
2018-05-14T05:05:07.017Z,123.75
2018-05-14T05:06:07.004Z,129.38
2018-05-14T05:07:07.005Z,151.88
2018-05-14T05:08:07.003Z,146.25
2018-05-14T05:09:06.994Z,140.63
2018-05-14T05:10:06.992Z,140.63
2018-05-14T05:11:06.991Z,135.00
2018-05-14T05:12:06.980Z,135.00
2018-05-14T05:13:06.976Z,146.25
2018-05-14T05:14:06.976Z,151.88
2018-05-14T05:15:06.963Z,151.88
2018-05-14T05:16:06.962Z,151.88
2018-05-14T05:17:07.015Z,151.88
2018-05-14T05:18:06.954Z,151.88
2018-05-14T05:19:06.946Z,157.50
2018-05-14T05:20:06.938Z,163.13
2018-05-14T05:21:06.974Z,180.00
2018-05-14T05:22:06.928Z,185.63
2018-05-14T05:23:06.921Z,185.63
2018-05-14T05:24:06.923Z,180.00
2018-05-14T05:25:06.913Z,174.38
2018-05-14T05:26:06.903Z,185.63
2018-05-14T05:27:06.905Z,191.25
2018-05-14T05:28:06.901Z,191.25
2018-05-14T05:29:06.892Z,185.63
2018-05-14T05:30:06.884Z,180.00
2018-05-14T05:31:06.887Z,174.38
2018-05-14T05:32:06.893Z,180.00
2018-05-14T05:33:06.870Z,174.38
2018-05-14T05:34:06.870Z,185.63
2018-05-14T05:35:06.866Z,185.63
2018-05-14T05:36:06.865Z,185.63
2018-05-14T05:37:06.853Z,191.25
2018-05-14T05:38:06.846Z,202.50
2018-05-14T05:39:06.847Z,202.50
2018-05-14T05:40:06.852Z,213.75
2018-05-14T05:41:06.835Z,225.00
2018-05-14T05:42:06.837Z,230.63
2018-05-14T05:43:06.826Z,253.13
2018-05-14T05:44:06.817Z,281.25
2018-05-14T05:45:06.820Z,298.13
2018-05-14T05:46:06.814Z,292.50
2018-05-14T05:47:06.812Z,286.88
2018-05-14T05:48:06.806Z,286.88
2018-05-14T05:49:06.807Z,281.25
2018-05-14T05:50:06.805Z,270.00
2018-05-14T05:51:06.791Z,270.00
2018-05-14T05:52:06.785Z,275.63
2018-05-14T05:53:06.782Z,286.88
2018-05-14T05:54:06.776Z,298.13
2018-05-14T05:55:06.777Z,298.13
2018-05-14T05:56:06.770Z,286.88
2018-05-14T05:57:06.769Z,270.00
2018-05-14T05:58:06.758Z,264.38
2018-05-14T05:59:06.766Z,281.25
2018-05-14T06:00:06.761Z,298.13
2018-05-14T06:01:06.749Z,303.75
2018-05-14T06:02:06.750Z,315.00
2018-05-14T06:03:06.743Z,320.63
2018-05-14T06:04:06.738Z,309.38
2018-05-14T06:05:06.734Z,275.63
2018-05-14T06:06:06.751Z,241.88
2018-05-14T06:07:06.727Z,241.88
2018-05-14T06:08:06.720Z,247.50
2018-05-14T06:09:06.716Z,241.88
2018-05-14T06:10:06.714Z,241.88
2018-05-14T06:11:06.707Z,241.88
2018-05-14T06:12:06.704Z,264.38
2018-05-14T06:13:06.695Z,286.88
2018-05-14T06:14:06.694Z,298.13
2018-05-14T06:15:06.725Z,303.75
2018-05-14T06:16:06.684Z,315.00
2018-05-14T06:17:06.677Z,303.75
2018-05-14T06:18:06.682Z,292.50
2018-05-14T06:19:06.682Z,303.75
2018-05-14T06:20:06.680Z,315.00
2018-05-14T06:21:06.667Z,326.25
2018-05-14T06:22:06.662Z,331.88
2018-05-14T06:23:06.656Z,337.50
2018-05-14T06:24:06.652Z,343.13
2018-05-14T06:25:06.651Z,331.88
2018-05-14T06:26:06.644Z,303.75
2018-05-14T06:27:06.644Z,275.63
2018-05-14T06:28:06.632Z,270.00
2018-05-14T06:29:06.630Z,258.75
2018-05-14T06:30:06.636Z,258.75
2018-05-14T06:31:06.855Z,253.13
2018-05-14T06:32:06.844Z,253.13
2018-05-14T06:33:06.748Z,264.38
2018-05-14T06:34:06.815Z,281.25
2018-05-14T06:35:06.783Z,292.50
2018-05-14T06:36:06.748Z,309.38
2018-05-14T06:37:06.751Z,315.00
2018-05-14T06:38:06.636Z,298.13
2018-05-14T06:39:06.724Z,286.88
2018-05-14T06:40:06.612Z,292.50
2018-05-14T06:41:06.637Z,298.13
2018-05-14T06:42:06.639Z,303.75
2018-05-14T06:43:06.575Z,303.75
2018-05-14T06:44:06.616Z,309.38
2018-05-14T06:45:06.676Z,309.38
2018-05-14T06:46:06.562Z,315.00
2018-05-14T06:47:06.556Z,320.63
2018-05-14T06:48:06.553Z,326.25
2018-05-14T06:49:06.551Z,320.63
2018-05-14T06:50:06.550Z,320.63
2018-05-14T06:51:06.560Z,331.88
2018-05-14T06:52:06.535Z,326.25
2018-05-14T06:53:06.530Z,320.63
2018-05-14T06:54:06.530Z,303.75
2018-05-14T06:55:06.547Z,303.75
2018-05-14T06:56:06.521Z,315.00
2018-05-14T06:57:06.517Z,320.63
2018-05-14T06:58:06.595Z,320.63
2018-05-14T06:59:06.511Z,315.00
2018-05-14T07:00:06.500Z,309.38
2018-05-14T07:01:06.498Z,303.75
2018-05-14T07:02:06.492Z,298.13
2018-05-14T07:03:06.541Z,281.25
2018-05-14T07:04:06.480Z,275.63
2018-05-14T07:05:06.479Z,281.25
2018-05-14T07:06:06.477Z,281.25
2018-05-14T07:07:06.462Z,275.63
2018-05-14T07:08:06.467Z,275.63
2018-05-14T07:09:06.467Z,292.50
2018-05-14T07:10:06.461Z,303.75
2018-05-14T07:11:06.453Z,303.75
2018-05-14T07:12:06.448Z,303.75
2018-05-14T07:13:06.437Z,286.88
2018-05-14T07:14:06.444Z,281.25
2018-05-14T07:15:06.492Z,286.88
2018-05-14T07:16:06.432Z,298.13
2018-05-14T07:17:06.432Z,315.00
2018-05-14T07:18:06.425Z,331.88
2018-05-14T07:19:06.415Z,348.75
2018-05-14T07:20:06.408Z,360.00
2018-05-14T07:21:06.421Z,360.00
2018-05-14T07:22:06.410Z,360.00
2018-05-14T07:23:06.400Z,376.88
2018-05-14T07:24:06.396Z,388.13
2018-05-14T07:25:06.398Z,382.50
2018-05-14T07:26:06.393Z,388.13
2018-05-14T07:27:06.380Z,399.38
2018-05-14T07:28:06.381Z,405.00
2018-05-14T07:29:06.378Z,388.13
2018-05-14T07:30:06.441Z,405.00
2018-05-14T07:31:06.366Z,427.50
2018-05-14T07:32:06.364Z,427.50
2018-05-14T07:33:06.356Z,410.63
2018-05-14T07:34:06.353Z,405.00
2018-05-14T07:35:06.349Z,421.88
2018-05-14T07:36:06.342Z,483.75
2018-05-14T07:37:06.338Z,551.25
2018-05-14T07:38:06.340Z,624.38
2018-05-14T07:39:06.334Z,652.50
2018-05-14T07:40:06.326Z,607.50
2018-05-14T07:41:06.326Z,568.13
2018-05-14T07:42:06.319Z,556.88
2018-05-14T07:43:06.318Z,495.00
2018-05-14T07:44:06.327Z,495.00
2018-05-14T07:45:06.312Z,500.63
2018-05-14T07:46:06.354Z,506.25
2018-05-14T07:47:06.299Z,523.13
2018-05-14T07:48:06.328Z,540.00
2018-05-14T07:49:06.297Z,556.88
2018-05-14T07:50:06.285Z,596.25
2018-05-14T07:51:06.290Z,624.38
2018-05-14T07:52:06.289Z,624.38
2018-05-14T07:53:06.284Z,601.88
2018-05-14T07:54:06.283Z,596.25
2018-05-14T07:55:06.273Z,601.88
2018-05-14T07:56:06.268Z,601.88
2018-05-14T07:57:06.261Z,618.75
2018-05-14T07:58:06.262Z,624.38
2018-05-14T07:59:06.259Z,663.75
2018-05-14T08:00:06.257Z,720.00
2018-05-14T08:01:06.250Z,765.00
2018-05-14T08:02:06.246Z,815.63
2018-05-14T08:03:06.251Z,877.50
2018-05-14T08:04:06.242Z,967.50
2018-05-14T08:05:06.247Z,1029.38
2018-05-14T08:06:06.263Z,1040.63
2018-05-14T08:07:06.233Z,1023.75
2018-05-14T08:08:06.228Z,916.88
2018-05-14T08:09:06.231Z,821.25
2018-05-14T08:10:06.239Z,765.00
2018-05-14T08:11:06.221Z,759.38
2018-05-14T08:12:06.219Z,753.75
2018-05-14T08:13:06.220Z,725.63
2018-05-14T08:14:06.217Z,675.00
2018-05-14T08:15:06.211Z,618.75
2018-05-14T08:16:06.215Z,596.25
2018-05-14T08:17:06.212Z,585.00
2018-05-14T08:18:06.203Z,607.50
2018-05-14T08:19:06.203Z,630.00
2018-05-14T08:20:06.208Z,675.00
2018-05-14T08:21:06.194Z,731.25
2018-05-14T08:22:06.194Z,776.25
2018-05-14T08:23:06.213Z,793.13
2018-05-14T08:24:06.187Z,776.25
2018-05-14T08:25:06.187Z,708.75
2018-05-14T08:26:06.172Z,663.75
2018-05-14T08:27:06.182Z,663.75
2018-05-14T08:28:06.180Z,697.50
2018-05-14T08:29:06.177Z,736.88
2018-05-14T08:30:06.172Z,787.50
2018-05-14T08:31:06.171Z,843.75
2018-05-14T08:32:06.167Z,945.00
2018-05-14T08:33:06.168Z,1012.50
2018-05-14T08:34:06.164Z,1023.75
2018-05-14T08:35:06.165Z,1023.75
2018-05-14T08:36:06.158Z,1051.88
2018-05-14T08:37:06.217Z,1035.00
2018-05-14T08:38:06.156Z,1018.13
2018-05-14T08:39:06.144Z,973.13
2018-05-14T08:40:06.147Z,967.50
2018-05-14T08:41:06.147Z,961.88
2018-05-14T08:42:06.217Z,916.88
2018-05-14T08:43:06.140Z,883.13
2018-05-14T08:44:06.139Z,894.38
2018-05-14T08:45:06.137Z,883.13
2018-05-14T08:46:06.258Z,871.88
2018-05-14T08:47:06.136Z,939.38
2018-05-14T08:48:06.173Z,1023.75
2018-05-14T08:49:06.129Z,973.13
2018-05-14T08:50:06.123Z,838.13
2018-05-14T08:51:06.118Z,720.00
2018-05-14T08:52:06.128Z,680.63
2018-05-14T08:53:06.116Z,697.50
2018-05-14T08:54:06.125Z,748.13
2018-05-14T08:55:06.110Z,810.00
2018-05-14T08:56:06.109Z,821.25
2018-05-14T08:57:06.110Z,765.00
2018-05-14T08:58:06.104Z,686.25
2018-05-14T08:59:06.105Z,646.88
2018-05-14T09:00:06.104Z,658.13
2018-05-14T09:01:06.238Z,708.75
2018-05-14T09:02:06.094Z,686.25
2018-05-14T09:03:06.095Z,675.00
2018-05-14T09:04:06.095Z,663.75
2018-05-14T09:05:06.085Z,658.13
2018-05-14T09:06:06.158Z,641.25
2018-05-14T09:07:06.136Z,590.63
2018-05-14T09:08:06.090Z,579.38
2018-05-14T09:09:06.074Z,607.50
2018-05-14T09:10:06.075Z,624.38
2018-05-14T09:11:06.067Z,635.63
2018-05-14T09:12:06.085Z,652.50
2018-05-14T09:13:06.094Z,641.25
2018-05-14T09:14:06.101Z,624.38
2018-05-14T09:15:06.107Z,613.13
2018-05-14T09:16:06.114Z,618.75
2018-05-14T09:17:06.055Z,630.00
2018-05-14T09:18:06.054Z,641.25
2018-05-14T09:19:06.044Z,641.25
2018-05-14T09:20:06.040Z,658.13
2018-05-14T09:21:06.044Z,652.50
2018-05-14T09:22:06.081Z,641.25
2018-05-14T09:23:06.034Z,686.25
2018-05-14T09:24:06.031Z,753.75
2018-05-14T09:25:06.029Z,826.88
2018-05-14T09:26:06.021Z,855.00
2018-05-14T09:27:06.034Z,843.75
2018-05-14T09:28:06.021Z,815.63
2018-05-14T09:29:06.020Z,838.13
2018-05-14T09:30:06.027Z,877.50
2018-05-14T09:31:06.017Z,871.88
2018-05-14T09:32:06.026Z,810.00
2018-05-14T09:33:06.010Z,765.00
2018-05-14T09:34:06.028Z,748.13
2018-05-14T09:35:06.008Z,725.63
2018-05-14T09:36:06.009Z,753.75
2018-05-14T09:37:06.000Z,781.88
2018-05-14T09:38:05.992Z,781.88
2018-05-14T09:39:05.994Z,804.38
2018-05-14T09:40:05.986Z,798.75
2018-05-14T09:41:05.985Z,781.88
2018-05-14T09:42:05.983Z,826.88
2018-05-14T09:43:05.981Z,860.63
2018-05-14T09:44:05.981Z,984.38
2018-05-14T09:45:05.976Z,1040.63
2018-05-14T09:46:05.976Z,978.75
2018-05-14T09:47:05.970Z,905.63
2018-05-14T09:48:05.963Z,877.50
2018-05-14T09:49:05.970Z,894.38
2018-05-14T09:50:05.963Z,990.00
2018-05-14T09:51:05.957Z,990.00
2018-05-14T09:52:05.956Z,916.88
2018-05-14T09:53:05.972Z,1029.38
2018-05-14T09:54:05.956Z,1068.75
2018-05-14T09:55:05.948Z,1091.25
2018-05-14T09:56:05.965Z,1063.13
2018-05-14T09:57:05.944Z,990.00
2018-05-14T09:58:05.946Z,900.00
2018-05-14T09:59:06.118Z,832.50
2018-05-14T10:00:05.938Z,838.13
2018-05-14T10:01:05.939Z,765.00
2018-05-14T10:02:05.950Z,691.88
2018-05-14T10:03:05.940Z,646.88
2018-05-14T10:04:05.928Z,658.13
2018-05-14T10:05:05.926Z,646.88
2018-05-14T10:06:05.928Z,630.00
2018-05-14T10:07:06.005Z,590.63
2018-05-14T10:08:05.923Z,556.88
2018-05-14T10:09:05.927Z,556.88
2018-05-14T10:10:05.914Z,624.38
2018-05-14T10:11:05.914Z,669.38
2018-05-14T10:12:05.913Z,731.25
2018-05-14T10:13:06.027Z,708.75
2018-05-14T10:14:05.912Z,708.75
2018-05-14T10:15:05.906Z,691.88
2018-05-14T10:16:05.904Z,720.00
2018-05-14T10:17:05.914Z,748.13
2018-05-14T10:18:05.899Z,776.25
2018-05-14T10:19:05.901Z,765.00
2018-05-14T10:20:05.891Z,759.38
2018-05-14T10:21:05.883Z,714.38
2018-05-14T10:22:05.907Z,708.75
2018-05-14T10:23:05.890Z,691.88
2018-05-14T10:24:05.887Z,686.25
2018-05-14T10:25:05.888Z,680.63
2018-05-14T10:26:05.880Z,680.63
2018-05-14T10:27:05.872Z,720.00
2018-05-14T10:28:05.874Z,731.25
2018-05-14T10:29:05.884Z,714.38
2018-05-14T10:30:05.897Z,714.38
2018-05-14T10:31:05.861Z,613.13
2018-05-14T10:32:05.951Z,601.88
2018-05-14T10:33:05.861Z,613.13
2018-05-14T10:34:05.854Z,590.63
2018-05-14T10:35:05.862Z,562.50
2018-05-14T10:36:05.849Z,590.63
2018-05-14T10:37:05.846Z,641.25
2018-05-14T10:38:05.847Z,635.63
2018-05-14T10:39:05.838Z,652.50
2018-05-14T10:40:05.863Z,652.50
2018-05-14T10:41:05.842Z,601.88
2018-05-14T10:42:05.830Z,630.00
2018-05-14T10:43:05.827Z,624.38
2018-05-14T10:44:05.820Z,630.00
2018-05-14T10:45:05.818Z,646.88
2018-05-14T10:46:05.819Z,624.38
2018-05-14T10:47:05.817Z,590.63
2018-05-14T10:48:05.817Z,573.75
2018-05-14T10:49:05.815Z,590.63
2018-05-14T10:50:05.801Z,635.63
2018-05-14T10:51:05.806Z,579.38
2018-05-14T10:52:05.800Z,579.38
2018-05-14T10:53:05.792Z,596.25
2018-05-14T10:54:05.793Z,607.50
2018-05-14T10:55:05.785Z,630.00
2018-05-14T10:56:05.788Z,675.00
2018-05-14T10:57:05.785Z,635.63
2018-05-14T10:58:05.784Z,669.38
2018-05-14T10:59:05.776Z,641.25
2018-05-14T11:00:05.776Z,641.25
2018-05-14T11:01:05.775Z,675.00
2018-05-14T11:02:05.761Z,663.75
2018-05-14T11:03:05.765Z,680.63
2018-05-14T11:04:05.809Z,658.13
2018-05-14T11:05:05.763Z,658.13
2018-05-14T11:06:05.789Z,675.00
2018-05-14T11:07:05.756Z,691.88
2018-05-14T11:08:05.747Z,703.13
2018-05-14T11:09:05.748Z,720.00
2018-05-14T11:10:05.742Z,748.13
2018-05-14T11:11:05.749Z,753.75
2018-05-14T11:12:05.737Z,720.00
2018-05-14T11:13:05.741Z,714.38
2018-05-14T11:14:05.741Z,686.25
2018-05-14T11:15:05.727Z,675.00
2018-05-14T11:16:05.732Z,652.50
2018-05-14T11:17:05.737Z,641.25
2018-05-14T11:18:05.725Z,630.00
2018-05-14T11:19:05.721Z,641.25
2018-05-14T11:20:05.740Z,680.63
2018-05-14T11:21:05.722Z,708.75
2018-05-14T11:22:05.723Z,663.75
2018-05-14T11:23:05.710Z,641.25
2018-05-14T11:24:05.707Z,635.63
2018-05-14T11:25:05.708Z,596.25
2018-05-14T11:26:05.701Z,568.13
2018-05-14T11:27:05.697Z,562.50
2018-05-14T11:28:05.704Z,585.00
2018-05-14T11:29:05.702Z,641.25
2018-05-14T11:30:05.701Z,658.13
2018-05-14T11:31:05.693Z,646.88
2018-05-14T11:32:05.691Z,641.25
2018-05-14T11:33:05.684Z,658.13
2018-05-14T11:34:05.683Z,658.13
2018-05-14T11:35:05.682Z,658.13
2018-05-14T11:36:05.678Z,635.63
2018-05-14T11:37:05.681Z,613.13
2018-05-14T11:38:05.671Z,624.38
2018-05-14T11:39:05.676Z,646.88
2018-05-14T11:40:05.667Z,675.00
2018-05-14T11:41:05.670Z,731.25
2018-05-14T11:42:05.661Z,703.13
2018-05-14T11:43:05.665Z,652.50
2018-05-14T11:44:05.679Z,618.75
2018-05-14T11:45:05.654Z,613.13
2018-05-14T11:46:05.645Z,641.25
2018-05-14T11:47:05.649Z,720.00
2018-05-14T11:48:05.666Z,753.75
2018-05-14T11:49:05.643Z,787.50
2018-05-14T11:50:05.649Z,815.63
2018-05-14T11:51:05.637Z,804.38
2018-05-14T11:52:05.637Z,742.50
2018-05-14T11:53:05.636Z,725.63
2018-05-14T11:54:05.633Z,753.75
2018-05-14T11:55:05.627Z,781.88
2018-05-14T11:56:05.635Z,787.50
2018-05-14T11:57:05.629Z,810.00
2018-05-14T11:58:05.625Z,832.50
2018-05-14T11:59:05.620Z,843.75
2018-05-14T12:00:05.616Z,843.75
2018-05-14T12:01:05.629Z,871.88
2018-05-14T12:02:05.620Z,905.63
2018-05-14T12:03:05.709Z,900.00
2018-05-14T12:04:05.610Z,849.38
2018-05-14T12:05:05.610Z,821.25
2018-05-14T12:06:05.690Z,866.25
2018-05-14T12:07:05.606Z,888.75
2018-05-14T12:08:05.596Z,871.88
2018-05-14T12:09:05.618Z,843.75
2018-05-14T12:10:05.618Z,815.63
2018-05-14T12:11:05.596Z,781.88
2018-05-14T12:12:05.599Z,787.50
2018-05-14T12:13:05.590Z,765.00
2018-05-14T12:14:05.606Z,725.63
2018-05-14T12:15:05.588Z,703.13
2018-05-14T12:16:05.598Z,703.13
2018-05-14T12:17:05.590Z,731.25
2018-05-14T12:18:05.663Z,736.88
2018-05-14T12:19:05.690Z,742.50
2018-05-14T12:20:05.582Z,742.50
2018-05-14T12:21:05.578Z,725.63
2018-05-14T12:22:05.578Z,736.88
2018-05-14T12:23:05.571Z,770.63
2018-05-14T12:24:05.574Z,793.13
2018-05-14T12:25:05.569Z,765.00
2018-05-14T12:26:05.576Z,731.25
2018-05-14T12:27:05.570Z,748.13
2018-05-14T12:28:05.566Z,736.88
2018-05-14T12:29:05.568Z,753.75
2018-05-14T12:30:05.565Z,742.50
2018-05-14T12:31:05.564Z,753.75
2018-05-14T12:32:05.591Z,765.00
2018-05-14T12:33:05.554Z,770.63
2018-05-14T12:34:05.568Z,793.13
2018-05-14T12:35:05.552Z,826.88
2018-05-14T12:36:05.555Z,883.13
2018-05-14T12:37:05.568Z,905.63
2018-05-14T12:38:05.547Z,905.63
2018-05-14T12:39:05.546Z,871.88
2018-05-14T12:40:05.541Z,860.63
2018-05-14T12:41:05.592Z,826.88
2018-05-14T12:42:05.547Z,781.88
2018-05-14T12:43:05.539Z,776.25
2018-05-14T12:44:05.529Z,776.25
2018-05-14T12:45:05.535Z,748.13
2018-05-14T12:46:05.554Z,748.13
2018-05-14T12:47:05.536Z,753.75
2018-05-14T12:48:05.543Z,736.88
2018-05-14T12:49:05.534Z,708.75
2018-05-14T12:50:05.532Z,714.38
2018-05-14T12:51:05.528Z,720.00
2018-05-14T12:52:05.530Z,714.38
2018-05-14T12:53:05.553Z,669.38
2018-05-14T12:54:05.522Z,601.88
2018-05-14T12:55:05.519Z,568.13
2018-05-14T12:56:05.517Z,551.25
2018-05-14T12:57:05.524Z,523.13
2018-05-14T12:58:05.514Z,511.88
2018-05-14T12:59:05.511Z,511.88
2018-05-14T13:00:05.511Z,506.25
2018-05-14T13:01:05.510Z,523.13
2018-05-14T13:02:05.559Z,545.63
2018-05-14T13:03:05.512Z,568.13
2018-05-14T13:04:05.507Z,585.00
2018-05-14T13:05:05.508Z,596.25
2018-05-14T13:06:05.497Z,663.75
2018-05-14T13:07:05.527Z,759.38
2018-05-14T13:08:05.494Z,855.00
2018-05-14T13:09:05.493Z,911.25
2018-05-14T13:10:05.487Z,939.38
2018-05-14T13:11:05.491Z,1006.88
2018-05-14T13:12:05.490Z,1074.38
2018-05-14T13:13:05.567Z,1096.88
2018-05-14T13:14:05.483Z,1119.38
2018-05-14T13:15:05.482Z,1220.63
2018-05-14T13:16:05.482Z,1158.75
2018-05-14T13:17:06.234Z,1091.25
2018-05-14T13:18:05.480Z,984.38
2018-05-14T13:19:05.560Z,916.88
2018-05-14T13:20:05.471Z,888.75
2018-05-14T13:21:05.472Z,877.50
2018-05-14T13:22:05.465Z,843.75
2018-05-14T13:23:05.472Z,776.25
2018-05-14T13:24:05.472Z,770.63
2018-05-14T13:25:05.465Z,810.00
2018-05-14T13:26:05.470Z,826.88
2018-05-14T13:27:05.454Z,759.38
2018-05-14T13:28:05.466Z,680.63
2018-05-14T13:29:05.464Z,618.75
2018-05-14T13:30:05.468Z,545.63
2018-05-14T13:31:05.462Z,483.75
2018-05-14T13:32:05.500Z,438.75
2018-05-14T13:33:05.517Z,421.88
2018-05-14T13:34:05.461Z,416.25
2018-05-14T13:35:05.455Z,399.38
2018-05-14T13:36:05.457Z,376.88
2018-05-14T13:37:05.453Z,331.88
2018-05-14T13:38:05.707Z,298.13
2018-05-14T13:39:05.455Z,286.88
2018-05-14T13:40:05.444Z,286.88
2018-05-14T13:41:05.447Z,286.88
2018-05-14T13:42:05.448Z,292.50
2018-05-14T13:43:05.445Z,292.50
2018-05-14T13:44:05.448Z,292.50
2018-05-14T13:45:05.436Z,309.38
2018-05-14T13:46:05.436Z,315.00
2018-05-14T13:47:05.430Z,331.88
2018-05-14T13:48:05.433Z,371.25
2018-05-14T13:49:05.435Z,399.38
2018-05-14T13:50:05.425Z,416.25
2018-05-14T13:51:05.471Z,405.00
2018-05-14T13:52:05.430Z,365.63
2018-05-14T13:53:05.423Z,337.50
2018-05-14T13:54:05.415Z,326.25
2018-05-14T13:55:05.412Z,343.13
2018-05-14T13:56:05.412Z,382.50
2018-05-14T13:57:05.412Z,410.63
2018-05-14T13:58:05.407Z,450.00
2018-05-14T13:59:05.404Z,495.00
2018-05-14T14:00:05.394Z,562.50
2018-05-14T14:01:05.383Z,607.50
2018-05-14T14:02:05.397Z,579.38
2018-05-14T14:03:05.388Z,568.13
2018-05-14T14:04:05.389Z,573.75
2018-05-14T14:05:05.378Z,562.50
2018-05-14T14:06:05.384Z,568.13
2018-05-14T14:07:05.380Z,511.88
2018-05-14T14:08:05.371Z,461.25
2018-05-14T14:09:05.365Z,455.63
2018-05-14T14:10:05.366Z,511.88
2018-05-14T14:11:05.361Z,495.00
2018-05-14T14:12:05.357Z,450.00
2018-05-14T14:13:05.356Z,421.88
2018-05-14T14:14:05.356Z,416.25
2018-05-14T14:15:05.352Z,444.38
2018-05-14T14:16:05.347Z,478.13
2018-05-14T14:17:05.422Z,506.25
2018-05-14T14:18:05.342Z,523.13
2018-05-14T14:19:05.340Z,517.50
2018-05-14T14:20:05.336Z,506.25
2018-05-14T14:21:05.331Z,534.38
2018-05-14T14:22:05.332Z,579.38
2018-05-14T14:23:05.344Z,596.25
2018-05-14T14:24:05.457Z,630.00
2018-05-14T14:25:05.320Z,613.13
2018-05-14T14:26:05.318Z,652.50
2018-05-14T14:27:05.312Z,658.13
2018-05-14T14:28:05.312Z,624.38
2018-05-14T14:29:05.313Z,613.13
2018-05-14T14:30:05.302Z,624.38
2018-05-14T14:31:05.310Z,630.00
2018-05-14T14:32:05.298Z,596.25
2018-05-14T14:33:05.298Z,579.38
2018-05-14T14:34:05.289Z,590.63
2018-05-14T14:35:05.295Z,556.88
2018-05-14T14:36:05.297Z,551.25
2018-05-14T14:37:05.301Z,523.13
2018-05-14T14:38:05.282Z,489.38
2018-05-14T14:39:05.287Z,450.00
2018-05-14T14:40:05.293Z,433.13
2018-05-14T14:41:05.260Z,416.25
2018-05-14T14:42:05.313Z,421.88
2018-05-14T14:43:05.267Z,438.75
2018-05-14T14:44:05.268Z,466.88
2018-05-14T14:45:05.260Z,500.63
2018-05-14T14:46:05.263Z,551.25
2018-05-14T14:47:05.252Z,607.50
2018-05-14T14:48:05.245Z,613.13
2018-05-14T14:49:05.278Z,630.00
2018-05-14T14:50:05.247Z,585.00
2018-05-14T14:51:05.260Z,585.00
2018-05-14T14:52:05.240Z,585.00
2018-05-14T14:53:05.248Z,585.00
2018-05-14T14:54:05.269Z,641.25
2018-05-14T14:55:05.242Z,697.50
2018-05-14T14:56:05.237Z,720.00
2018-05-14T14:57:05.237Z,742.50
2018-05-14T14:58:05.221Z,765.00
2018-05-14T14:59:05.230Z,821.25
2018-05-14T15:00:05.226Z,821.25
2018-05-14T15:01:05.218Z,770.63
2018-05-14T15:02:05.212Z,691.88
2018-05-14T15:03:05.214Z,624.38
2018-05-14T15:04:05.220Z,562.50
2018-05-14T15:05:05.200Z,607.50
2018-05-14T15:06:05.320Z,646.88
2018-05-14T15:07:05.206Z,669.38
2018-05-14T15:08:05.186Z,736.88
2018-05-14T15:09:05.187Z,781.88
2018-05-14T15:10:05.187Z,742.50
2018-05-14T15:11:05.183Z,714.38
2018-05-14T15:12:05.181Z,675.00
2018-05-14T15:13:05.183Z,641.25
2018-05-14T15:14:05.180Z,641.25
2018-05-14T15:15:05.180Z,691.88
2018-05-14T15:16:05.173Z,776.25
2018-05-14T15:17:05.182Z,849.38
2018-05-14T15:18:05.190Z,798.75
2018-05-14T15:19:05.175Z,798.75
2018-05-14T15:20:05.219Z,781.88
2018-05-14T15:21:05.166Z,748.13
2018-05-14T15:22:05.164Z,708.75
2018-05-14T15:23:05.164Z,641.25
2018-05-14T15:24:05.174Z,556.88
2018-05-14T15:25:05.159Z,444.38
2018-05-14T15:26:05.155Z,405.00
2018-05-14T15:27:05.155Z,450.00
2018-05-14T15:28:05.152Z,495.00